createdAt,value
2018-07-10T00:00:10.531Z,15.80
2018-07-10T00:02:52.748Z,15.70
2018-07-10T00:07:47.172Z,15.60
2018-07-10T00:12:26.940Z,15.60
2018-07-10T00:14:56.899Z,15.40
2018-07-10T00:17:33.074Z,15.30
2018-07-10T00:20:03.475Z,15.30
2018-07-10T00:22:38.276Z,15.30
2018-07-10T00:25:06.904Z,15.30
2018-07-10T00:27:37.211Z,15.20
2018-07-10T00:30:07.287Z,15.10
2018-07-10T00:32:37.135Z,15.00
2018-07-10T00:35:05.717Z,15.00
2018-07-10T00:37:36.659Z,14.90
2018-07-10T00:40:09.221Z,14.80
2018-07-10T00:42:40.776Z,14.60
2018-07-10T00:45:11.121Z,14.70
2018-07-10T00:47:40.047Z,14.60
2018-07-10T00:50:08.685Z,14.60
2018-07-10T00:52:37.515Z,14.50
2018-07-10T00:55:06.086Z,14.40
2018-07-10T00:57:34.686Z,14.40
2018-07-10T01:00:03.510Z,14.40
2018-07-10T01:02:32.189Z,14.40
2018-07-10T01:05:00.949Z,14.30
2018-07-10T01:07:29.602Z,14.20
2018-07-10T01:09:58.664Z,14.10
2018-07-10T01:12:27.451Z,14.10
2018-07-10T01:14:56.180Z,14.10
2018-07-10T01:17:24.861Z,14.10
2018-07-10T01:19:53.763Z,14.00
2018-07-10T01:22:22.437Z,14.00
2018-07-10T01:24:51.212Z,14.00
2018-07-10T01:27:19.939Z,14.10
2018-07-10T01:29:49.270Z,14.00
2018-07-10T01:32:18.003Z,14.00
2018-07-10T01:34:46.892Z,14.00
2018-07-10T01:37:16.093Z,13.90
2018-07-10T01:39:45.069Z,13.80
2018-07-10T01:42:13.601Z,13.80
2018-07-10T01:44:42.629Z,13.80
2018-07-10T01:47:11.311Z,13.70
2018-07-10T01:49:40.373Z,13.70
2018-07-10T01:52:08.893Z,13.70
2018-07-10T01:54:37.692Z,13.70
2018-07-10T01:57:06.537Z,13.70
2018-07-10T01:59:35.147Z,13.70
2018-07-10T02:02:03.786Z,13.70
2018-07-10T02:04:32.750Z,13.70
2018-07-10T02:09:30.089Z,13.70
2018-07-10T02:11:58.637Z,13.80
2018-07-10T02:16:55.531Z,13.70
2018-07-10T02:19:24.725Z,13.70
2018-07-10T02:21:53.477Z,13.70
2018-07-10T02:24:24.996Z,13.60
2018-07-10T02:26:54.132Z,13.60
2018-07-10T02:29:23.728Z,13.60
2018-07-10T02:31:53.312Z,13.60
2018-07-10T02:34:22.033Z,13.50
2018-07-10T02:36:50.633Z,13.50
2018-07-10T02:39:19.887Z,13.50
2018-07-10T02:41:48.605Z,13.50
2018-07-10T02:44:17.246Z,13.40
2018-07-10T02:46:46.807Z,13.40
2018-07-10T02:49:19.430Z,13.40
2018-07-10T02:52:03.208Z,13.40
2018-07-10T02:54:34.540Z,13.30
2018-07-10T02:59:35.651Z,13.40
2018-07-10T03:02:05.198Z,13.30
2018-07-10T03:04:35.141Z,13.30
2018-07-10T03:07:04.146Z,13.30
2018-07-10T03:09:32.894Z,13.30
2018-07-10T03:12:02.893Z,13.20
2018-07-10T03:14:31.500Z,13.20
2018-07-10T03:17:00.432Z,13.30
2018-07-10T03:19:29.769Z,13.20
2018-07-10T03:21:58.384Z,13.20
2018-07-10T03:24:26.977Z,13.20
2018-07-10T03:26:55.918Z,13.20
2018-07-10T03:29:25.797Z,13.20
2018-07-10T03:31:54.434Z,13.20
2018-07-10T03:34:23.583Z,13.20
2018-07-10T03:36:52.581Z,13.20
2018-07-10T03:39:21.739Z,13.20
2018-07-10T03:41:50.671Z,13.20
2018-07-10T03:44:19.951Z,13.20
2018-07-10T03:46:48.629Z,13.20
2018-07-10T03:49:17.331Z,13.10
2018-07-10T03:51:47.747Z,13.10
2018-07-10T03:56:45.870Z,13.00
2018-07-10T03:59:14.471Z,13.00
2018-07-10T04:01:43.136Z,13.00
2018-07-10T04:04:12.329Z,13.00
2018-07-10T04:06:41.771Z,13.10
2018-07-10T04:09:11.237Z,13.10
2018-07-10T04:11:47.171Z,13.10
2018-07-10T04:14:16.915Z,13.20
2018-07-10T04:16:46.627Z,13.10
2018-07-10T04:21:54.531Z,13.10
2018-07-10T04:24:23.475Z,13.10
2018-07-10T04:27:31.634Z,13.10
2018-07-10T04:30:07.645Z,13.10
2018-07-10T04:32:39.100Z,12.80
2018-07-10T04:35:11.065Z,13.00
2018-07-10T04:37:41.509Z,13.00
2018-07-10T04:40:10.316Z,13.00
2018-07-10T04:42:46.644Z,13.00
2018-07-10T04:45:17.285Z,13.10
2018-07-10T04:47:56.212Z,13.10
2018-07-10T04:50:33.038Z,13.00
2018-07-10T04:53:05.140Z,13.00
2018-07-10T04:55:38.566Z,12.90
2018-07-10T04:58:11.906Z,12.90
2018-07-10T05:00:49.971Z,12.90
2018-07-10T05:03:20.369Z,12.90
2018-07-10T05:05:49.042Z,12.90
2018-07-10T05:08:19.866Z,12.90
2018-07-10T05:10:49.495Z,12.90
2018-07-10T05:13:18.386Z,13.00
2018-07-10T05:15:52.703Z,13.10
2018-07-10T05:18:21.415Z,13.10
2018-07-10T05:20:50.394Z,13.10
2018-07-10T05:23:20.104Z,13.10
2018-07-10T05:25:53.199Z,13.10
2018-07-10T05:28:21.916Z,13.20
2018-07-10T05:30:50.876Z,13.30
2018-07-10T05:33:22.183Z,13.30
2018-07-10T05:35:51.668Z,13.40
2018-07-10T05:38:25.029Z,13.30
2018-07-10T05:40:53.640Z,13.40
2018-07-10T05:43:22.268Z,13.40
2018-07-10T05:45:50.994Z,13.40
2018-07-10T05:48:20.039Z,13.40
2018-07-10T05:50:48.685Z,13.40
2018-07-10T05:53:17.305Z,13.50
2018-07-10T05:55:48.525Z,13.50
2018-07-10T06:00:45.415Z,13.70
2018-07-10T06:03:14.107Z,13.80
2018-07-10T06:05:42.807Z,13.70
2018-07-10T06:08:13.247Z,13.70
2018-07-10T06:10:42.503Z,13.70
2018-07-10T06:13:11.190Z,13.80
2018-07-10T06:15:40.395Z,13.70
2018-07-10T06:18:09.055Z,13.70
2018-07-10T06:23:06.358Z,13.40
2018-07-10T06:25:35.938Z,13.50
2018-07-10T06:28:11.240Z,13.50
2018-07-10T06:30:40.866Z,13.40
2018-07-10T06:33:20.267Z,13.40
2018-07-10T06:36:21.549Z,13.40
2018-07-10T06:38:52.550Z,13.50
2018-07-10T06:41:21.461Z,13.60
2018-07-10T06:43:56.034Z,13.70
2018-07-10T06:46:29.879Z,13.90
2018-07-10T06:49:05.373Z,14.00
2018-07-10T06:51:35.620Z,14.10
2018-07-10T06:54:04.391Z,14.20
2018-07-10T06:56:33.196Z,14.30
2018-07-10T06:59:01.798Z,14.40
2018-07-10T07:01:30.418Z,14.40
2018-07-10T07:04:01.531Z,14.50
2018-07-10T07:06:31.541Z,14.50
2018-07-10T07:09:00.370Z,14.50
2018-07-10T07:11:28.974Z,14.50
2018-07-10T07:13:57.890Z,14.60
2018-07-10T07:16:26.452Z,14.50
2018-07-10T07:18:55.143Z,14.50
2018-07-10T07:21:23.890Z,14.60
2018-07-10T07:23:52.847Z,14.70
2018-07-10T07:26:21.612Z,14.70
2018-07-10T07:28:50.342Z,14.60
2018-07-10T07:31:19.369Z,14.70
2018-07-10T07:33:48.301Z,14.70
2018-07-10T07:36:17.553Z,14.80
2018-07-10T07:38:46.350Z,14.80
2018-07-10T07:41:15.067Z,14.80
2018-07-10T07:43:43.875Z,14.80
2018-07-10T07:46:12.525Z,14.70
2018-07-10T07:48:41.152Z,14.70
2018-07-10T07:51:11.489Z,14.70
2018-07-10T07:53:40.412Z,14.80
2018-07-10T07:56:08.953Z,14.90
2018-07-10T07:58:38.564Z,15.00
2018-07-10T08:01:07.184Z,15.10
2018-07-10T08:03:37.715Z,15.20
2018-07-10T08:06:07.506Z,15.30
2018-07-10T08:11:05.025Z,15.30
2018-07-10T08:13:33.827Z,15.30
2018-07-10T08:16:02.417Z,15.30
2018-07-10T08:18:31.031Z,15.30
2018-07-10T08:20:59.604Z,15.30
2018-07-10T08:23:28.197Z,15.40
2018-07-10T08:25:57.866Z,15.50
2018-07-10T08:28:28.136Z,15.50
2018-07-10T08:31:00.371Z,15.50
2018-07-10T08:33:29.373Z,15.60
2018-07-10T08:38:42.405Z,15.50
2018-07-10T08:41:24.512Z,15.40
2018-07-10T08:46:29.128Z,15.20
2018-07-10T08:48:58.203Z,15.20
2018-07-10T08:51:27.889Z,15.20
2018-07-10T08:53:56.793Z,15.10
2018-07-10T08:56:26.782Z,15.20
2018-07-10T08:58:56.143Z,15.30
2018-07-10T09:01:25.717Z,15.50
2018-07-10T09:03:54.508Z,15.40
2018-07-10T09:06:23.346Z,15.60
2018-07-10T09:08:51.923Z,15.60
2018-07-10T09:11:20.600Z,15.60
2018-07-10T09:13:52.127Z,15.60
2018-07-10T09:16:20.882Z,15.70
2018-07-10T09:18:52.537Z,15.80
2018-07-10T09:21:21.544Z,15.90
2018-07-10T09:23:50.301Z,15.90
2018-07-10T09:26:19.269Z,16.00
2018-07-10T09:28:49.684Z,16.10
2018-07-10T09:31:18.835Z,16.10
2018-07-10T09:33:47.949Z,16.20
2018-07-10T09:36:17.353Z,16.30
2018-07-10T09:38:46.007Z,16.40
2018-07-10T09:41:14.622Z,16.50
2018-07-10T09:43:44.411Z,16.50
2018-07-10T09:46:13.325Z,16.50
2018-07-10T09:48:42.009Z,16.40
2018-07-10T09:51:10.802Z,16.50
2018-07-10T09:53:40.722Z,16.60
2018-07-10T09:56:09.442Z,16.70
2018-07-10T09:58:38.532Z,16.70
2018-07-10T10:01:12.447Z,16.80
2018-07-10T10:03:41.180Z,16.70
2018-07-10T10:06:10.193Z,16.70
2018-07-10T10:08:38.908Z,16.60
2018-07-10T10:11:07.640Z,16.50
2018-07-10T10:13:36.315Z,16.50
2018-07-10T10:16:04.891Z,16.50
2018-07-10T10:18:34.766Z,16.50
2018-07-10T10:21:03.600Z,16.60
2018-07-10T10:26:00.835Z,16.50
2018-07-10T10:30:58.548Z,16.30
2018-07-10T10:33:27.115Z,16.30
2018-07-10T10:35:55.808Z,16.20
2018-07-10T10:38:24.341Z,16.10
2018-07-10T10:40:53.724Z,16.10
2018-07-10T10:43:23.163Z,16.10
2018-07-10T10:45:52.241Z,16.10
2018-07-10T10:48:20.870Z,16.10
2018-07-10T10:50:51.095Z,16.10
2018-07-10T10:53:20.483Z,16.10
2018-07-10T10:55:49.189Z,16.10
2018-07-10T10:58:19.097Z,16.00
2018-07-10T11:00:48.353Z,16.00
2018-07-10T11:03:17.493Z,16.10
2018-07-10T11:05:46.492Z,16.10
2018-07-10T11:08:15.325Z,16.20
2018-07-10T11:13:14.725Z,16.00
2018-07-10T11:15:44.509Z,15.90
2018-07-10T11:18:19.817Z,15.90
2018-07-10T11:21:12.375Z,15.90
2018-07-10T11:23:47.658Z,15.90
2018-07-10T11:26:25.153Z,15.80
2018-07-10T11:28:54.900Z,15.80
2018-07-10T11:31:23.522Z,15.80
2018-07-10T11:33:52.195Z,15.80
2018-07-10T11:36:21.054Z,15.80
2018-07-10T11:38:50.349Z,15.70
2018-07-10T11:41:20.032Z,15.50
2018-07-10T11:43:48.713Z,15.30
2018-07-10T11:46:17.460Z,15.20
2018-07-10T11:48:46.501Z,15.00
2018-07-10T11:51:15.887Z,15.10
2018-07-10T11:53:45.635Z,15.10
2018-07-10T11:56:14.845Z,15.00
2018-07-10T11:58:43.419Z,14.90
2018-07-10T12:01:12.193Z,14.80
2018-07-10T12:03:41.625Z,14.70
2018-07-10T12:06:11.292Z,14.70
2018-07-10T12:08:40.644Z,14.70
2018-07-10T12:11:17.161Z,14.80
2018-07-10T12:13:46.008Z,14.90
2018-07-10T12:16:15.003Z,14.90
2018-07-10T12:18:43.628Z,14.80
2018-07-10T12:21:18.183Z,14.80
2018-07-10T12:23:46.857Z,14.70
2018-07-10T12:26:16.451Z,14.70
2018-07-10T12:28:45.181Z,14.60
2018-07-10T12:31:13.864Z,14.50
2018-07-10T12:33:43.015Z,14.60
2018-07-10T12:36:11.889Z,14.60
2018-07-10T12:38:41.390Z,14.60
2018-07-10T12:41:10.111Z,14.70
2018-07-10T12:43:38.931Z,14.70
2018-07-10T12:46:07.784Z,14.70
2018-07-10T12:48:36.345Z,14.80
2018-07-10T12:51:04.975Z,14.90
2018-07-10T12:53:33.590Z,15.00
2018-07-10T12:56:02.492Z,15.00
2018-07-10T12:58:32.211Z,14.90
2018-07-10T13:01:01.629Z,14.90
2018-07-10T13:03:30.298Z,14.90
2018-07-10T13:05:59.538Z,14.90
2018-07-10T13:08:28.190Z,15.00
2018-07-10T13:10:57.155Z,15.00
2018-07-10T13:13:26.222Z,15.00
2018-07-10T13:15:55.385Z,15.00
2018-07-10T13:18:27.899Z,15.00
2018-07-10T13:20:57.208Z,15.10
2018-07-10T13:23:26.082Z,15.10
2018-07-10T13:25:54.760Z,15.20
2018-07-10T13:28:23.365Z,15.20
2018-07-10T13:30:52.121Z,15.20
2018-07-10T13:33:20.852Z,15.20
2018-07-10T13:35:49.577Z,15.10
2018-07-10T13:38:20.948Z,15.10
2018-07-10T13:40:50.641Z,15.10
2018-07-10T13:43:19.253Z,15.10
2018-07-10T13:45:47.950Z,15.10
2018-07-10T13:48:16.632Z,15.10
2018-07-10T13:50:45.330Z,15.00
2018-07-10T13:53:13.900Z,15.00
2018-07-10T13:55:42.552Z,14.90
2018-07-10T13:58:14.484Z,14.90
2018-07-10T14:00:46.609Z,14.90
2018-07-10T14:03:15.780Z,14.90
2018-07-10T14:05:44.496Z,14.90
2018-07-10T14:08:13.182Z,15.00
2018-07-10T14:10:42.030Z,15.10
2018-07-10T14:13:10.757Z,15.20
2018-07-10T14:15:39.757Z,15.20
2018-07-10T14:18:08.603Z,15.20
2018-07-10T14:20:40.484Z,15.10
2018-07-10T14:23:09.237Z,15.00
2018-07-10T14:25:37.932Z,15.10
2018-07-10T14:28:07.863Z,15.10
2018-07-10T14:30:36.723Z,15.20
2018-07-10T14:33:05.486Z,15.20
2018-07-10T14:35:34.916Z,15.30
2018-07-10T14:38:06.394Z,15.20
2018-07-10T14:40:38.809Z,15.20
2018-07-10T14:43:07.563Z,15.20
2018-07-10T14:45:37.309Z,15.20
2018-07-10T14:48:06.692Z,15.20
2018-07-10T14:50:35.614Z,15.10
2018-07-10T14:53:05.478Z,15.10
2018-07-10T14:55:34.585Z,15.00
2018-07-10T14:58:03.373Z,15.00
2018-07-10T15:00:32.032Z,14.90
2018-07-10T15:03:01.299Z,14.90
2018-07-10T15:05:29.860Z,14.90
2018-07-10T15:07:58.461Z,14.80
2018-07-10T15:10:27.542Z,14.80
2018-07-10T15:12:56.208Z,14.80
2018-07-10T15:15:24.924Z,14.90
2018-07-10T15:17:59.603Z,14.90
2018-07-10T15:20:28.375Z,15.00
2018-07-10T15:22:56.990Z,15.00
2018-07-10T15:25:25.652Z,15.10
2018-07-10T15:27:54.702Z,15.00
2018-07-10T15:30:23.561Z,15.10
2018-07-10T15:32:52.404Z,15.00
2018-07-10T15:35:21.861Z,15.00
2018-07-10T15:37:51.198Z,15.00
2018-07-10T15:40:20.253Z,15.00
2018-07-10T15:42:49.227Z,15.10
2018-07-10T15:45:17.845Z,15.20
2018-07-10T15:47:46.537Z,15.20
2018-07-10T15:50:15.218Z,15.20
2018-07-10T15:52:43.834Z,15.20
2018-07-10T15:55:12.441Z,15.10
2018-07-10T15:57:41.391Z,15.10
2018-07-10T16:00:10.029Z,15.10
2018-07-10T16:02:39.062Z,15.10
2018-07-10T16:05:07.732Z,15.10
2018-07-10T16:07:37.134Z,15.20
2018-07-10T16:10:06.017Z,15.20
2018-07-10T16:12:35.534Z,15.20
2018-07-10T16:15:04.207Z,15.20
2018-07-10T16:17:32.782Z,15.30
2018-07-10T16:20:05.880Z,15.30
2018-07-10T16:22:36.043Z,15.30
2018-07-10T16:25:11.356Z,15.40
2018-07-10T16:27:42.725Z,15.40
2018-07-10T16:30:13.291Z,15.40
2018-07-10T16:32:42.456Z,15.40
2018-07-10T16:35:11.668Z,15.40
2018-07-10T16:37:41.327Z,15.40
2018-07-10T16:40:09.951Z,15.40
2018-07-10T16:42:44.045Z,15.40
2018-07-10T16:45:17.490Z,15.40
2018-07-10T16:48:00.807Z,15.40
2018-07-10T16:50:35.597Z,15.30
2018-07-10T16:53:04.206Z,15.30
2018-07-10T16:55:33.162Z,15.30
2018-07-10T16:58:01.879Z,15.20
2018-07-10T17:00:30.712Z,15.20
2018-07-10T17:03:00.559Z,15.20
2018-07-10T17:05:29.159Z,15.20
2018-07-10T17:07:57.852Z,15.20
2018-07-10T17:10:26.548Z,15.20
2018-07-10T17:12:55.205Z,15.10
2018-07-10T17:15:23.895Z,15.10
2018-07-10T17:17:52.496Z,15.10
2018-07-10T17:20:21.237Z,15.10
2018-07-10T17:22:49.953Z,15.00
2018-07-10T17:25:19.429Z,15.00
2018-07-10T17:27:49.999Z,15.00
2018-07-10T17:30:18.667Z,14.90
2018-07-10T17:32:47.508Z,14.90
2018-07-10T17:35:16.562Z,14.90
2018-07-10T17:37:47.466Z,14.80
2018-07-10T17:40:16.738Z,14.70
2018-07-10T17:42:47.309Z,14.70
2018-07-10T17:45:22.490Z,14.60
2018-07-10T17:47:51.924Z,14.60
2018-07-10T17:50:20.934Z,14.60
2018-07-10T17:52:51.706Z,14.60
2018-07-10T17:55:21.248Z,14.60
2018-07-10T17:57:53.545Z,14.60
2018-07-10T18:00:22.745Z,14.60
2018-07-10T18:02:51.382Z,14.50
2018-07-10T18:05:20.465Z,14.50
2018-07-10T18:07:49.360Z,14.60
2018-07-10T18:10:18.400Z,14.60
2018-07-10T18:12:46.990Z,14.60
2018-07-10T18:15:15.593Z,14.60
2018-07-10T18:17:44.248Z,14.60
2018-07-10T18:20:13.174Z,14.70
2018-07-10T18:22:41.935Z,14.80
2018-07-10T18:25:10.502Z,14.90
2018-07-10T18:27:39.950Z,15.00
2018-07-10T18:30:08.853Z,15.00
2018-07-10T18:32:38.078Z,15.00
2018-07-10T18:35:06.921Z,15.10
2018-07-10T18:37:35.644Z,15.10
2018-07-10T18:40:04.382Z,15.10
2018-07-10T18:42:33.130Z,15.00
2018-07-10T18:45:02.296Z,15.00
2018-07-10T18:47:30.923Z,15.00
2018-07-10T18:49:59.846Z,14.90
2018-07-10T18:52:29.973Z,14.90
2018-07-10T18:57:39.658Z,14.80
2018-07-10T19:00:08.352Z,14.80
2018-07-10T19:02:59.808Z,14.70
2018-07-10T19:05:28.471Z,14.70
2018-07-10T19:07:58.031Z,14.60
2018-07-10T19:10:27.583Z,14.60
2018-07-10T19:12:56.667Z,14.60
2018-07-10T19:15:25.353Z,14.60
2018-07-10T19:17:54.984Z,14.60
2018-07-10T19:20:26.627Z,14.50
2018-07-10T19:23:01.420Z,14.50
2018-07-10T19:25:30.288Z,14.50
2018-07-10T19:28:00.108Z,14.50
2018-07-10T19:30:36.485Z,14.50
2018-07-10T19:33:05.466Z,14.40
2018-07-10T19:35:34.103Z,14.40
2018-07-10T19:38:02.954Z,14.40
2018-07-10T19:40:31.609Z,14.40
2018-07-10T19:45:28.913Z,14.30
2018-07-10T19:47:57.651Z,14.30
2018-07-10T19:50:33.146Z,14.30
2018-07-10T19:53:01.844Z,14.20
2018-07-10T19:55:30.552Z,14.20
2018-07-10T19:58:09.291Z,14.20
2018-07-10T20:00:43.561Z,14.20
2018-07-10T20:05:24.632Z,14.20
2018-07-10T20:07:58.895Z,14.10
2018-07-10T20:10:36.772Z,13.90
2018-07-10T20:13:17.904Z,13.90
2018-07-10T20:16:00.503Z,13.90
2018-07-10T20:20:51.165Z,13.90
2018-07-10T20:23:57.969Z,13.90
2018-07-10T20:27:16.714Z,13.80
2018-07-10T20:32:23.881Z,13.90
2018-07-10T20:35:07.503Z,13.90
2018-07-10T20:37:36.716Z,14.00
2018-07-10T20:40:05.328Z,14.00
2018-07-10T20:42:43.451Z,14.00
2018-07-10T20:45:13.016Z,14.00
2018-07-10T20:47:50.174Z,14.00
2018-07-10T20:50:43.236Z,14.00
2018-07-10T20:53:20.840Z,14.00
2018-07-10T20:56:00.820Z,13.90
2018-07-10T20:58:35.112Z,13.90
2018-07-10T21:01:05.524Z,13.90
2018-07-10T21:03:59.183Z,14.00
2018-07-10T21:06:40.026Z,14.00
2018-07-10T21:09:11.579Z,13.90
2018-07-10T21:15:24.367Z,13.90
2018-07-10T21:18:01.738Z,13.90
2018-07-10T21:21:37.582Z,13.80
2018-07-10T21:24:17.156Z,13.80
2018-07-10T21:27:08.925Z,13.70
2018-07-10T21:29:58.293Z,13.70
2018-07-10T21:32:39.412Z,13.70
2018-07-10T21:35:10.575Z,13.70
2018-07-10T21:37:50.577Z,13.70
2018-07-10T21:40:33.682Z,13.70
2018-07-10T21:43:57.968Z,13.70
2018-07-10T21:46:47.142Z,13.70
2018-07-10T21:49:55.966Z,13.70
2018-07-10T21:52:27.102Z,13.70
2018-07-10T21:54:57.964Z,13.70
2018-07-10T21:57:40.567Z,13.70
2018-07-10T22:00:12.926Z,13.70
2018-07-10T22:02:43.531Z,13.60
2018-07-10T22:05:14.514Z,13.60
2018-07-10T22:07:45.131Z,13.60
2018-07-10T22:10:16.447Z,13.50
2018-07-10T22:12:51.067Z,13.50
2018-07-10T22:15:23.516Z,13.40
2018-07-10T22:17:54.410Z,13.40
2018-07-10T22:20:25.467Z,13.40
2018-07-10T22:22:54.430Z,13.40
2018-07-10T22:25:23.148Z,13.50
2018-07-10T22:27:51.906Z,13.50
2018-07-10T22:31:23.794Z,13.50
2018-07-10T22:33:52.589Z,13.50
2018-07-10T22:36:21.445Z,13.40
2018-07-10T22:38:51.286Z,13.50
2018-07-10T22:43:51.628Z,13.50
2018-07-10T22:46:21.759Z,13.50
2018-07-10T22:48:50.872Z,13.50
2018-07-10T22:51:19.753Z,13.50
2018-07-10T22:53:48.485Z,13.50
2018-07-10T22:56:17.985Z,13.50
2018-07-10T22:58:47.393Z,13.50
2018-07-10T23:01:16.078Z,13.40
2018-07-10T23:03:44.719Z,13.40
2018-07-10T23:06:13.531Z,13.40
2018-07-10T23:08:42.372Z,13.50
2018-07-10T23:11:14.204Z,13.50
2018-07-10T23:13:47.554Z,13.50
2018-07-10T23:16:17.779Z,13.40
2018-07-10T23:18:47.965Z,13.40
2018-07-10T23:21:19.067Z,13.30
2018-07-10T23:23:49.419Z,13.40
2018-07-10T23:26:19.543Z,13.40
2018-07-10T23:28:52.800Z,13.40
2018-07-10T23:31:25.157Z,13.40
2018-07-10T23:34:06.265Z,13.40
2018-07-10T23:36:36.841Z,13.40
2018-07-10T23:39:08.187Z,13.40
2018-07-10T23:41:57.381Z,13.40
2018-07-10T23:44:30.495Z,13.40
2018-07-10T23:47:30.976Z,13.40
2018-07-10T23:50:14.856Z,13.40
2018-07-10T23:53:48.925Z,13.40
2018-07-10T23:56:18.525Z,13.40
2018-07-10T23:58:48.403Z,13.40
